Time;durP1;ratioP1;P1;durP2;ratioP2;P2;SDS_P1;SDS_P2;PMS_P1;PMS_P2;Temp;Humidity;BMP_temperature;BMP_pressure;BME280_temperature;BME280_humidity;BME280_pressure;Samples;Min_cycle;Max_cycle;Signal;HPM_P1;HPM_P2
2023/10/02 00:01:36;;;;;;;8.70;6.80;;;14.90;1.00;;;;;;5001895;28;20396;-85
2023/10/02 00:04:23;;;;;;;13.80;7.70;;;13.00;1.00;;;;;;5000270;28;20412;-85
2023/10/02 00:13:21;;;;;;;13.80;8.40;;;14.30;1.00;;;;;;4976674;28;20420;-85
2023/10/02 00:15:53;;;;;;;13.18;8.18;;;14.40;1.00;;;;;;4994941;28;20397;-85
2023/10/02 00:18:27;;;;;;;12.17;7.90;;;15.00;1.00;;;;;;5002301;28;20374;-85
2023/10/02 00:21:18;;;;;;;11.50;7.23;;;14.50;1.00;;;;;;4988336;28;20402;-85
2023/10/02 00:24:02;;;;;;;10.93;7.50;;;15.80;1.00;;;;;;4992899;28;20503;-85
2023/10/02 00:26:28;;;;;;;10.63;8.38;;;14.50;1.00;;;;;;4992338;28;20402;-86
2023/10/02 00:29:06;;;;;;;14.85;9.15;;;14.50;1.00;;;;;;4993474;28;20392;-86
2023/10/02 00:31:54;;;;;;;15.60;8.45;;;14.20;1.00;;;;;;5000242;28;20465;-85
2023/10/02 00:34:32;;;;;;;11.60;8.20;;;15.80;1.00;;;;;;4994388;28;20522;-86
2023/10/02 00:37:12;;;;;;;11.10;7.53;;;14.60;1.00;;;;;;4985673;28;20935;-86
2023/10/02 00:39:47;;;;;;;12.88;7.60;;;14.80;1.00;;;;;;4986700;28;20410;-86
2023/10/02 00:42:33;;;;;;;11.23;7.65;;;14.50;1.00;;;;;;4992565;28;20498;-86
2023/10/02 00:45:02;;;;;;;14.23;8.45;;;14.70;1.00;;;;;;4993003;28;20421;-86
2023/10/02 00:47:41;;;;;;;11.87;7.70;;;14.80;1.00;;;;;;4982023;28;20526;-86
2023/10/02 00:50:16;;;;;;;12.90;8.25;;;14.70;1.00;;;;;;4993881;28;20391;-86
2023/10/02 00:52:58;;;;;;;11.85;8.00;;;14.80;1.00;;;;;;4991835;28;20417;-87
2023/10/02 00:55:32;;;;;;;12.77;8.80;;;12.90;1.00;;;;;;4995799;28;20451;-86
2023/10/02 00:58:10;;;;;;;11.38;8.25;;;15.40;1.00;;;;;;4992670;28;20480;-86
2023/10/02 01:00:50;;;;;;;11.88;7.90;;;14.60;1.00;;;;;;4979699;28;20408;-87
2023/10/02 01:04:06;;;;;;;11.57;8.00;;;15.30;1.00;;;;;;4987543;28;20485;-86
2023/10/02 01:06:16;;;;;;;11.80;8.00;;;15.80;1.00;;;;;;4981744;28;20467;-86
2023/10/02 01:08:47;;;;;;;12.77;7.20;;;14.80;1.00;;;;;;4976824;28;20409;-86
2023/10/02 01:11:21;;;;;;;11.90;7.63;;;16.10;1.00;;;;;;4984640;28;20413;-86
2023/10/02 01:13:46;;;;;;;11.52;8.05;;;14.50;1.00;;;;;;4992027;28;20424;-87
2023/10/02 01:16:19;;;;;;;11.03;7.43;;;14.00;1.00;;;;;;4979866;28;20495;-86
2023/10/02 01:18:52;;;;;;;12.40;7.95;;;14.50;1.00;;;;;;4972383;28;20416;-86
2023/10/02 01:24:39;;;;;;;13.27;8.43;;;16.60;1.00;;;;;;4976013;28;20826;-85
2023/10/02 01:27:11;;;;;;;13.30;8.07;;;10.80;1.00;;;;;;4989843;28;20456;-86
2023/10/02 01:29:42;;;;;;;14.82;8.38;;;16.30;1.00;;;;;;4991663;28;20401;-86
2023/10/02 01:32:08;;;;;;;13.52;8.32;;;15.20;1.00;;;;;;4998334;28;20486;-86
2023/10/02 01:34:39;;;;;;;13.45;8.40;;;14.00;1.00;;;;;;4981433;28;20480;-85
2023/10/02 01:37:32;;;;;;;11.90;8.30;;;14.00;1.00;;;;;;5090050;23;20515;-85
2023/10/02 01:40:28;;;;;;;14.20;8.85;;;13.70;1.00;;;;;;4992492;28;20406;-85
2023/10/02 01:42:44;;;;;;;14.80;8.05;;;15.00;1.00;;;;;;4992519;28;20398;-85
2023/10/02 01:45:20;;;;;;;14.27;8.55;;;13.80;1.00;;;;;;4990463;28;20418;-85
2023/10/02 01:51:20;;;;;;;13.00;7.55;;;16.30;1.00;;;;;;4941893;29;20447;-86
2023/10/02 01:54:04;;;;;;;12.93;8.30;;;11.30;1.00;;;;;;4996899;28;20433;-86
2023/10/02 01:56:36;;;;;;;13.00;7.72;;;14.60;1.00;;;;;;5005765;28;20776;-86
2023/10/02 01:59:13;;;;;;;13.88;8.68;;;13.80;1.00;;;;;;4974548;28;20404;-86
2023/10/02 02:04:50;;;;;;;12.60;7.20;;;14.00;1.00;;;;;;5013072;28;20389;-86
2023/10/02 02:07:20;;;;;;;12.63;8.60;;;13.60;1.00;;;;;;5018819;28;20395;-85
2023/10/02 02:10:01;;;;;;;13.25;8.55;;;14.60;1.00;;;;;;5014546;28;20406;-85
2023/10/02 02:15:27;;;;;;;13.05;8.10;;;13.60;1.00;;;;;;5011456;28;20409;-86
2023/10/02 02:17:52;;;;;;;14.65;8.50;;;16.30;1.00;;;;;;5011953;28;20445;-86
2023/10/02 02:23:32;;;;;;;12.53;8.23;;;12.10;1.00;;;;;;5010734;28;20485;-86
2023/10/02 02:26:08;;;;;;;15.13;8.13;;;15.10;1.00;;;;;;4990802;28;20488;-86
2023/10/02 02:28:43;;;;;;;14.15;8.88;;;13.90;1.00;;;;;;4991340;28;20392;-86
2023/10/02 02:31:29;;;;;;;13.60;8.60;;;13.30;1.00;;;;;;5008180;28;20734;-86
2023/10/02 02:33:59;;;;;;;13.27;8.73;;;13.80;1.00;;;;;;4999651;28;20436;-85
2023/10/02 02:36:49;;;;;;;13.80;8.73;;;13.30;1.00;;;;;;4991886;28;20890;-85
2023/10/02 02:39:20;;;;;;;13.30;8.20;;;13.50;1.00;;;;;;4978813;28;20412;-86
2023/10/02 02:45:24;;;;;;;14.00;8.80;;;13.60;1.00;;;;;;4979661;28;20476;-86
2023/10/02 02:47:54;;;;;;;14.35;8.57;;;13.20;1.00;;;;;;4991449;28;20402;-86
2023/10/02 02:50:32;;;;;;;15.02;9.38;;;13.20;1.00;;;;;;4992007;28;20406;-86
2023/10/02 02:55:45;;;;;;;15.68;9.10;;;14.00;1.00;;;;;;4992260;28;20393;-86
2023/10/02 02:58:21;;;;;;;14.23;8.13;;;13.30;1.00;;;;;;4990673;28;20396;-86
2023/10/02 03:00:55;;;;;;;14.98;8.00;;;13.20;1.00;;;;;;4993565;28;20394;-86
2023/10/02 03:03:41;;;;;;;16.25;8.30;;;17.20;1.00;;;;;;4997526;28;20408;-86
2023/10/02 03:06:27;;;;;;;;;;;;;;;;;;;;;
2023/10/02 03:09:05;;;;;;;13.18;8.23;;;13.30;1.00;;;;;;4992497;28;20481;-86
2023/10/02 03:11:38;;;;;;;12.80;8.32;;;13.40;1.00;;;;;;4990343;28;20395;-86
2023/10/02 03:14:12;;;;;;;16.10;8.07;;;12.90;1.00;;;;;;4990237;28;20474;-85
2023/10/02 03:16:44;;;;;;;14.60;8.13;;;13.10;1.00;;;;;;4990518;28;20484;-86
2023/10/02 03:19:16;;;;;;;14.88;7.85;;;16.40;1.00;;;;;;4990345;28;20437;-86
2023/10/02 03:21:42;;;;;;;15.15;9.07;;;14.00;1.00;;;;;;4990861;28;20398;-86
2023/10/02 03:24:18;;;;;;;14.75;8.50;;;13.00;1.00;;;;;;4990452;28;20422;-86
2023/10/02 03:26:56;;;;;;;14.07;8.82;;;13.60;1.00;;;;;;4990254;28;20390;-85
2023/10/02 03:29:30;;;;;;;13.23;8.63;;;12.90;1.00;;;;;;4990009;28;21126;-86
2023/10/02 03:31:59;;;;;;;13.77;8.05;;;16.50;1.00;;;;;;4989849;28;20489;-86
2023/10/02 03:34:35;;;;;;;14.80;8.57;;;15.40;1.00;;;;;;4990779;28;20430;-87
2023/10/02 03:40:14;;;;;;;16.27;8.68;;;12.70;1.00;;;;;;4991862;28;20407;-86
2023/10/02 03:42:52;;;;;;;17.53;9.50;;;13.00;1.00;;;;;;4986178;28;20834;-86
2023/10/02 03:45:38;;;;;;;16.40;9.55;;;16.20;1.00;;;;;;4991864;28;20414;-87
2023/10/02 03:48:15;;;;;;;16.38;8.65;;;12.80;1.00;;;;;;4991646;28;20383;-87
2023/10/02 03:50:41;;;;;;;15.30;9.05;;;13.60;1.00;;;;;;4990166;28;20409;-87
2023/10/02 03:53:13;;;;;;;14.52;8.65;;;12.80;1.00;;;;;;4989752;28;20929;-86
2023/10/02 03:56:36;;;;;;;17.27;8.65;;;14.60;1.00;;;;;;4990629;28;20398;-86
2023/10/02 03:58:55;;;;;;;18.08;10.20;;;14.10;1.00;;;;;;4993335;28;20422;-87
2023/10/02 04:01:40;;;;;;;15.90;9.27;;;13.60;1.00;;;;;;5021316;28;20431;-87
2023/10/02 04:04:19;;;;;;;16.53;9.60;;;16.20;1.00;;;;;;5015888;28;20439;-88
2023/10/02 04:06:58;;;;;;;15.88;8.80;;;12.40;1.00;;;;;;5018592;28;20434;-88
2023/10/02 04:09:33;;;;;;;14.77;8.88;;;15.20;1.00;;;;;;5009847;28;20409;-87
2023/10/02 04:12:07;;;;;;;15.73;9.60;;;12.80;1.00;;;;;;4999828;28;20398;-87
2023/10/02 04:14:39;;;;;;;15.73;9.70;;;12.80;1.00;;;;;;4990213;28;20489;-87
2023/10/02 04:17:14;;;;;;;18.80;10.75;;;13.90;1.00;;;;;;4999342;28;20394;-87
2023/10/02 04:20:26;;;;;;;19.33;10.23;;;13.50;1.00;;;;;;4998983;28;20408;-87
2023/10/02 04:25:42;;;;;;;19.38;9.98;;;15.70;1.00;;;;;;4994070;28;20411;-87
2023/10/02 04:28:08;;;;;;;16.48;10.10;;;12.60;1.00;;;;;;4995167;28;20410;-86
2023/10/02 04:30:45;;;;;;;19.05;10.55;;;13.30;1.00;;;;;;4996721;28;20409;-87
2023/10/02 04:33:22;;;;;;;18.30;10.57;;;12.80;1.00;;;;;;4995093;28;21009;-87
2023/10/02 04:35:57;;;;;;;18.08;11.02;;;12.60;1.00;;;;;;5003155;28;20406;-86
2023/10/02 04:38:49;;;;;;;19.55;10.75;;;10.20;1.00;;;;;;5005700;28;20411;-87
2023/10/02 04:41:25;;;;;;;20.87;11.60;;;12.70;1.00;;;;;;5014097;28;20502;-87
2023/10/02 04:44:04;;;;;;;18.63;10.30;;;13.20;1.00;;;;;;5012777;28;20825;-87
2023/10/02 04:46:34;;;;;;;17.80;10.45;;;12.60;1.00;;;;;;4991754;28;20918;-87
2023/10/02 04:49:09;;;;;;;23.02;11.68;;;14.10;1.00;;;;;;4992860;28;20778;-87
2023/10/02 04:51:41;;;;;;;21.35;11.65;;;10.50;1.00;;;;;;4994082;28;20386;-87
2023/10/02 04:54:11;;;;;;;15.98;10.43;;;12.60;1.00;;;;;;4998487;28;20430;-87
2023/10/02 04:57:11;;;;;;;24.17;11.63;;;12.60;1.00;;;;;;4986572;28;20406;-87
2023/10/02 04:59:54;;;;;;;21.08;11.63;;;12.00;1.00;;;;;;4993041;28;20401;-87
2023/10/02 05:02:33;;;;;;;20.80;11.32;;;12.80;1.00;;;;;;4992180;28;20405;-87
2023/10/02 05:05:14;;;;;;;19.75;11.50;;;16.10;1.00;;;;;;4992881;28;20410;-86
2023/10/02 05:07:53;;;;;;;22.10;11.80;;;12.50;1.00;;;;;;4995941;28;20401;-87
2023/10/02 05:10:22;;;;;;;21.23;12.10;;;12.10;1.00;;;;;;5010430;28;20383;-87
2023/10/02 05:12:54;;;;;;;23.40;13.10;;;12.40;1.00;;;;;;5009706;28;20394;-87
2023/10/02 05:15:20;;;;;;;23.38;12.60;;;13.80;1.00;;;;;;5011171;28;20404;-86
2023/10/02 05:17:57;;;;;;;20.23;11.83;;;12.30;1.00;;;;;;5007824;28;20391;-87
2023/10/02 05:20:41;;;;;;;;;;;;;;;;;;;;;
2023/10/02 05:23:33;;;;;;;22.83;12.40;;;12.30;1.00;;;;;;4996035;28;20998;-86
2023/10/02 05:26:05;;;;;;;26.58;12.88;;;12.40;1.00;;;;;;4993807;28;20399;-87
2023/10/02 05:35:46;;;;;;;29.60;13.15;;;13.90;1.00;;;;;;4980182;28;20482;-87
2023/10/02 05:38:28;;;;;;;22.25;12.55;;;10.10;1.00;;;;;;4992313;28;20421;-87
2023/10/02 05:40:58;;;;;;;27.67;12.80;;;12.20;1.00;;;;;;4991832;28;20414;-87
2023/10/02 05:43:56;;;;;;;23.55;11.82;;;12.30;1.00;;;;;;4991851;28;20418;-86
2023/10/02 05:46:52;;;;;;;19.60;11.27;;;12.20;1.00;;;;;;4990580;28;20434;-87
2023/10/02 05:49:15;;;;;;;22.40;11.48;;;10.50;1.00;;;;;;4995667;28;20409;-88
2023/10/02 05:51:47;;;;;;;26.63;13.38;;;11.00;1.00;;;;;;4992973;28;20401;-87
2023/10/02 05:54:19;;;;;;;25.05;14.23;;;14.70;1.00;;;;;;4992417;28;20403;-87
2023/10/02 05:56:52;;;;;;;25.67;14.33;;;12.30;1.00;;;;;;4991187;28;20433;-87
2023/10/02 05:59:24;;;;;;;26.10;14.23;;;13.10;1.00;;;;;;4992681;28;20390;-86
2023/10/02 06:02:22;;;;;;;25.40;13.25;;;12.20;1.00;;;;;;4992457;28;20858;-86
2023/10/02 06:05:15;;;;;;;27.65;14.73;;;14.30;1.00;;;;;;4988751;28;20454;-88
2023/10/02 06:07:51;;;;;;;26.50;13.60;;;13.10;1.00;;;;;;4987524;28;20433;-87
2023/10/02 06:11:08;;;;;;;28.90;14.27;;;12.10;1.00;;;;;;5001269;28;20476;-86
2023/10/02 06:13:37;;;;;;;25.47;13.57;;;10.60;1.00;;;;;;4997951;28;20397;-87
2023/10/02 06:16:40;;;;;;;25.63;13.77;;;13.70;1.00;;;;;;5003773;28;20750;-87
2023/10/02 06:19:13;;;;;;;28.00;13.73;;;11.90;1.00;;;;;;4974645;28;20411;-87
2023/10/02 06:21:46;;;;;;;28.27;14.13;;;15.30;1.00;;;;;;4992266;28;20401;-87
2023/10/02 06:24:27;;;;;;;30.23;15.35;;;11.80;1.00;;;;;;4990499;28;20819;-87
2023/10/02 06:27:17;;;;;;;24.70;13.80;;;11.80;1.00;;;;;;4987123;28;20529;-87
2023/10/02 06:29:52;;;;;;;26.63;14.70;;;14.70;1.00;;;;;;4990917;28;20402;-87
2023/10/02 06:32:24;;;;;;;28.50;15.57;;;11.90;1.00;;;;;;4975522;28;20395;-85
2023/10/02 06:35:00;;;;;;;28.13;14.73;;;11.80;1.00;;;;;;4995247;28;20402;-85
2023/10/02 06:38:03;;;;;;;26.10;14.55;;;11.80;1.00;;;;;;4991791;28;20426;-87
2023/10/02 06:40:37;;;;;;;27.35;14.38;;;10.90;1.00;;;;;;4990592;28;20477;-86
2023/10/02 06:43:33;;;;;;;30.88;15.07;;;13.00;1.00;;;;;;4991444;28;20945;-86
2023/10/02 06:46:25;;;;;;;31.35;14.50;;;11.90;1.00;;;;;;4994251;28;20431;-86
2023/10/02 06:48:54;;;;;;;26.30;14.45;;;12.00;1.00;;;;;;4980862;28;20405;-86
2023/10/02 06:51:49;;;;;;;;;;;;;;;;;;;;;
2023/10/02 06:54:19;;;;;;;31.15;17.10;;;15.30;1.00;;;;;;4991507;28;20405;-86
2023/10/02 07:03:03;;;;;;;28.52;15.55;;;12.40;1.00;;;;;;4979617;28;20401;-86
2023/10/02 07:06:24;;;;;;;31.17;15.60;;;12.40;1.00;;;;;;4990018;28;20493;-86
2023/10/02 07:09:10;;;;;;;32.85;16.13;;;12.70;1.00;;;;;;4934407;29;20402;-86
2023/10/02 07:11:55;;;;;;;29.33;15.70;;;14.80;1.00;;;;;;4942043;29;20416;-86
2023/10/02 07:14:23;;;;;;;28.05;14.90;;;12.60;1.00;;;;;;4980591;28;20398;-86
2023/10/02 07:17:28;;;;;;;29.70;15.27;;;12.60;1.00;;;;;;4991539;28;20417;-86
2023/10/02 07:20:00;;;;;;;31.52;16.23;;;13.80;1.00;;;;;;4990772;28;20398;-86
2023/10/02 07:22:29;;;;;;;28.08;15.30;;;13.00;1.00;;;;;;4992074;28;20405;-86
2023/10/02 07:25:02;;;;;;;29.92;15.13;;;14.30;1.00;;;;;;4991468;28;20411;-87
2023/10/02 07:27:47;;;;;;;29.33;14.70;;;13.10;1.00;;;;;;5012336;28;20407;-87
2023/10/02 07:30:24;;;;;;;31.67;16.17;;;13.20;1.00;;;;;;4994444;28;20414;-86
2023/10/02 07:33:39;;;;;;;33.42;15.70;;;13.20;1.00;;;;;;4995310;28;20964;-86
2023/10/02 07:46:31;;;;;;;29.00;15.50;;;14.30;1.00;;;;;;4931848;29;20439;-86
2023/10/02 07:52:05;;;;;;;;;;;;;;;;;;;;;
2023/10/02 07:54:50;;;;;;;31.98;16.85;;;14.10;1.00;;;;;;4926995;29;20417;-87
2023/10/02 08:01:46;;;;;;;30.95;16.77;;;13.70;1.00;;;;;;4968019;28;20783;-88
2023/10/02 08:19:20;;;;;;;32.93;18.87;;;15.10;1.00;;;;;;4915339;29;20876;-88
2023/10/02 08:25:33;;;;;;;33.30;18.90;;;15.50;1.00;;;;;;4787568;30;20926;-88
2023/10/02 08:28:07;;;;;;;36.50;19.98;;;18.30;1.00;;;;;;4765646;29;20421;-87
2023/10/02 08:30:36;;;;;;;36.42;19.67;;;15.90;1.00;;;;;;4784351;30;20901;-87
2023/10/02 08:33:21;;;;;;;41.85;21.75;;;16.00;1.00;;;;;;4834024;29;20492;-87
2023/10/02 08:35:58;;;;;;;42.42;22.83;;;16.10;1.00;;;;;;4956940;28;20387;-88
2023/10/02 08:38:28;;;;;;;42.42;22.08;;;17.00;1.00;;;;;;4993973;28;20504;-88
2023/10/02 08:41:19;;;;;;;43.03;24.13;;;16.30;1.00;;;;;;4994170;28;20482;-88
2023/10/02 08:52:32;;;;;;;;;;;;;;;;;;;;;
2023/10/02 08:58:27;;;;;;;;;;;;;;;;;;;;;
2023/10/02 09:01:38;;;;;;;;;;;;;;;;;;;;;
2023/10/02 09:08:29;;;;;;;42.08;22.58;;;17.10;1.00;;;;;;4984875;28;20436;-87
2023/10/02 09:11:30;;;;;;;41.40;22.47;;;17.10;1.00;;;;;;4999584;28;20406;-89
2023/10/02 09:20:16;;;;;;;41.67;23.48;;;18.10;1.00;;;;;;4994312;28;20456;-88
2023/10/02 09:23:49;;;;;;;43.63;22.93;;;19.70;1.00;;;;;;5000160;28;20971;-87
2023/10/02 09:26:32;;;;;;;42.45;23.63;;;18.50;1.00;;;;;;5003002;28;20465;-88
2023/10/02 09:29:12;;;;;;;40.33;23.45;;;18.60;1.00;;;;;;5004435;28;20794;-88
2023/10/02 09:31:49;;;;;;;45.78;24.85;;;18.80;1.00;;;;;;4989975;28;20452;-88
2023/10/02 09:34:17;;;;;;;43.55;24.23;;;18.90;1.00;;;;;;4993862;28;20818;-87
2023/10/02 09:39:53;;;;;;;44.25;24.50;;;19.20;1.00;;;;;;4988342;28;20386;-87
2023/10/02 09:42:43;;;;;;;43.42;23.77;;;19.30;1.00;;;;;;5002646;28;20491;-88
2023/10/02 09:45:53;;;;;;;44.17;24.23;;;19.40;1.00;;;;;;5000078;28;20421;-88
2023/10/02 09:52:58;;;;;;;40.65;24.13;;;22.20;1.00;;;;;;4993328;28;20446;-88
2023/10/02 10:12:54;;;;;;;40.40;23.80;;;20.00;1.00;;;;;;4839032;29;20452;-89
2023/10/02 10:15:36;;;;;;;43.33;24.85;;;23.40;1.00;;;;;;4872856;29;20412;-89
2023/10/02 10:18:40;;;;;;;44.38;23.67;;;20.90;1.00;;;;;;4960206;28;20409;-89
2023/10/02 10:21:55;;;;;;;43.47;24.67;;;20.50;1.00;;;;;;4984385;28;20922;-88
2023/10/02 10:27:39;;;;;;;43.35;25.20;;;21.90;1.00;;;;;;5000294;28;20478;-88
2023/10/02 10:35:52;;;;;;;40.75;23.40;;;23.80;1.00;;;;;;4996505;28;20408;-90
2023/10/02 10:41:40;;;;;;;44.07;24.37;;;24.30;1.00;;;;;;4985116;28;20957;-89
2023/10/02 10:44:12;;;;;;;42.90;22.83;;;22.30;1.00;;;;;;4994010;28;20425;-89
2023/10/02 10:46:47;;;;;;;42.65;23.40;;;22.60;1.00;;;;;;4991237;28;20410;-88
2023/10/02 10:49:23;;;;;;;41.53;23.80;;;22.80;1.00;;;;;;4993618;28;20426;-89
2023/10/02 10:51:52;;;;;;;41.53;24.15;;;22.80;1.00;;;;;;4994654;28;20402;-88
2023/10/02 10:54:19;;;;;;;42.88;24.73;;;23.00;1.00;;;;;;4993584;28;20740;-89
2023/10/02 11:00:35;;;;;;;34.38;21.42;;;24.50;1.00;;;;;;4932165;29;20923;-89
2023/10/02 11:03:19;;;;;;;41.22;23.17;;;23.90;1.00;;;;;;4921426;29;20479;-91
2023/10/02 11:05:48;;;;;;;37.00;22.08;;;24.30;1.00;;;;;;4998472;28;20399;-89
2023/10/02 11:08:28;;;;;;;37.65;21.85;;;24.60;1.00;;;;;;5006184;28;20403;-89
2023/10/02 11:11:02;;;;;;;31.15;19.85;;;24.90;1.00;;;;;;5011368;28;20406;-90
2023/10/02 11:13:31;;;;;;;30.75;19.42;;;25.30;1.00;;;;;;5003265;28;20410;-88
2023/10/02 11:16:19;;;;;;;;;;;;;;;;;;;;;
2023/10/02 11:19:10;;;;;;;28.97;18.27;;;26.00;1.00;;;;;;5012753;28;20405;-90
2023/10/02 11:21:45;;;;;;;28.17;17.90;;;26.80;1.00;;;;;;5026661;28;20458;-90
2023/10/02 11:24:25;;;;;;;28.35;16.88;;;28.00;1.00;;;;;;5014115;28;20438;-88
2023/10/02 11:26:53;;;;;;;24.60;15.80;;;28.30;1.00;;;;;;5001433;28;20778;-89
2023/10/02 11:29:23;;;;;;;24.23;15.90;;;29.30;1.00;;;;;;4997348;28;20406;-85
2023/10/02 11:35:02;;;;;;;23.35;15.45;;;28.30;1.00;;;;;;5015799;28;20549;-87
2023/10/02 11:37:28;;;;;;;21.45;13.32;;;29.80;1.00;;;;;;5002613;28;20424;-86
2023/10/02 11:39:56;;;;;;;21.67;14.60;;;28.60;1.00;;;;;;4995244;28;20461;-86
2023/10/02 11:42:23;;;;;;;20.48;14.93;;;29.40;1.00;;;;;;4994378;28;20928;-87
2023/10/02 11:44:48;;;;;;;18.10;13.65;;;29.80;1.00;;;;;;4995837;28;20497;-83
2023/10/02 11:47:15;;;;;;;18.50;12.57;;;30.50;1.00;;;;;;4995346;28;20429;-85
2023/10/02 11:49:42;;;;;;;19.42;12.82;;;29.80;1.00;;;;;;4995273;28;20893;-87
2023/10/02 11:52:08;;;;;;;18.02;12.60;;;30.10;1.00;;;;;;4991697;28;20740;-84
2023/10/02 11:54:36;;;;;;;16.50;11.30;;;28.90;1.00;;;;;;4993082;28;20814;-85
2023/10/02 11:57:08;;;;;;;16.98;11.40;;;28.40;1.00;;;;;;4994697;28;20845;-83
2023/10/02 11:59:34;;;;;;;17.67;11.80;;;28.70;1.00;;;;;;4994986;28;20439;-84
2023/10/02 12:02:01;;;;;;;20.48;12.40;;;29.40;1.00;;;;;;5000452;28;20402;-83
2023/10/02 12:04:30;;;;;;;17.30;11.32;;;28.70;1.00;;;;;;4994803;28;20434;-84
2023/10/02 12:06:56;;;;;;;17.90;12.00;;;28.90;1.00;;;;;;5005402;28;20402;-84
2023/10/02 12:09:24;;;;;;;15.10;11.05;;;29.20;1.00;;;;;;4992072;28;20394;-83
2023/10/02 12:11:50;;;;;;;18.60;11.40;;;29.40;1.00;;;;;;4999573;28;20472;-83
2023/10/02 12:14:16;;;;;;;17.87;11.07;;;29.50;1.00;;;;;;5000803;28;20419;-85
2023/10/02 12:16:41;;;;;;;17.63;11.57;;;29.80;1.00;;;;;;4996802;28;20402;-85
2023/10/02 12:19:10;;;;;;;17.13;12.03;;;29.30;1.00;;;;;;5001538;28;20405;-83
2023/10/02 12:21:36;;;;;;;18.08;12.25;;;30.40;1.00;;;;;;5000650;28;20434;-83
2023/10/02 12:24:07;;;;;;;17.48;11.82;;;30.80;1.00;;;;;;4993055;28;20417;-85
2023/10/02 12:27:21;;;;;;;18.63;12.77;;;29.20;1.00;;;;;;5008598;23;21715;-84
2023/10/02 12:29:47;;;;;;;18.27;12.20;;;30.80;1.00;;;;;;4992452;28;20430;-83
2023/10/02 12:32:15;;;;;;;18.03;12.57;;;28.40;1.00;;;;;;4992664;28;20395;-84
2023/10/02 12:34:41;;;;;;;16.17;11.50;;;28.80;1.00;;;;;;4991390;28;20402;-84
2023/10/02 12:37:06;;;;;;;17.50;12.10;;;31.20;1.00;;;;;;4992599;28;20409;-84
2023/10/02 12:39:32;;;;;;;18.33;12.10;;;30.90;1.00;;;;;;4993078;28;20399;-83
2023/10/02 12:41:57;;;;;;;21.05;13.00;;;30.20;1.00;;;;;;4993864;28;20391;-87
2023/10/02 12:44:23;;;;;;;16.60;12.10;;;29.00;1.00;;;;;;4997811;28;20403;-85
2023/10/02 12:46:50;;;;;;;17.33;12.45;;;28.80;1.00;;;;;;4995971;28;20398;-87
2023/10/02 12:49:21;;;;;;;16.80;11.95;;;28.90;1.00;;;;;;4997222;28;20438;-87
2023/10/02 12:52:27;;;;;;;18.67;12.00;;;29.20;1.00;;;;;;4997798;28;20493;-87
2023/10/02 12:56:00;;;;;;;;;;;;;;;;;;;;;
2023/10/02 13:02:07;;;;;;;16.58;12.00;;;30.10;1.00;;;;;;4989393;28;20461;-87
2023/10/02 13:04:55;;;;;;;15.77;10.93;;;28.60;1.00;;;;;;4998041;28;20410;-87
2023/10/02 13:07:29;;;;;;;17.10;10.75;;;29.10;1.00;;;;;;4996166;28;20410;-86
2023/10/02 13:10:34;;;;;;;15.40;10.32;;;28.60;1.00;;;;;;4998189;28;20412;-87
2023/10/02 13:13:00;;;;;;;12.15;9.70;;;31.40;1.00;;;;;;4984081;28;20421;-86
2023/10/02 13:15:27;;;;;;;14.50;9.77;;;28.90;1.00;;;;;;4998194;28;20390;-87
2023/10/02 13:17:56;;;;;;;12.32;9.80;;;29.10;1.00;;;;;;4997427;28;20406;-88
2023/10/02 13:20:22;;;;;;;12.20;9.32;;;28.70;1.00;;;;;;4997429;28;20469;-87
2023/10/02 13:22:54;;;;;;;11.93;8.97;;;28.90;1.00;;;;;;4995778;28;20461;-87
2023/10/02 13:28:11;;;;;;;11.20;8.50;;;29.10;1.00;;;;;;5017588;28;20422;-86
2023/10/02 13:30:42;;;;;;;11.70;8.52;;;29.00;1.00;;;;;;5017688;28;20402;-86
2023/10/02 13:33:56;;;;;;;11.07;8.63;;;29.20;1.00;;;;;;5017407;28;20402;-87
2023/10/02 13:36:23;;;;;;;12.30;8.52;;;29.60;1.00;;;;;;5000659;28;20506;-87
2023/10/02 13:39:16;;;;;;;11.10;8.50;;;29.80;1.00;;;;;;5001296;28;20402;-88
2023/10/02 13:42:37;;;;;;;11.90;8.90;;;32.70;1.00;;;;;;5001164;28;20407;-87
2023/10/02 13:45:21;;;;;;;11.57;8.10;;;24.60;1.00;;;;;;4936540;29;20458;-86
2023/10/02 13:51:35;;;;;;;11.80;8.10;;;32.90;1.00;;;;;;4988570;28;20386;-88
2023/10/02 13:54:07;;;;;;;10.65;8.10;;;30.10;1.00;;;;;;4977428;28;20404;-87
2023/10/02 13:57:02;;;;;;;11.25;8.48;;;30.30;1.00;;;;;;4983206;28;20398;-87
2023/10/02 13:59:33;;;;;;;12.30;8.65;;;30.40;1.00;;;;;;4997337;28;20406;-88
2023/10/02 14:02:17;;;;;;;10.80;7.95;;;29.60;1.00;;;;;;4995798;28;20498;-87
2023/10/02 14:04:42;;;;;;;10.10;7.65;;;29.90;1.00;;;;;;4994982;28;20417;-86
2023/10/02 14:07:23;;;;;;;11.55;8.48;;;30.00;1.00;;;;;;4999968;28;20542;-86
2023/10/02 14:12:56;;;;;;;11.68;8.20;;;30.70;1.00;;;;;;4999326;28;20403;-87
2023/10/02 14:15:34;;;;;;;9.85;7.18;;;30.40;1.00;;;;;;5002009;28;20402;-87
2023/10/02 14:18:11;;;;;;;9.05;7.80;;;30.00;1.00;;;;;;5006280;28;20402;-87
2023/10/02 14:20:42;;;;;;;12.93;8.20;;;30.70;1.00;;;;;;5000444;28;20429;-87
2023/10/02 14:23:53;;;;;;;10.85;8.48;;;30.00;1.00;;;;;;4999852;28;20386;-88
2023/10/02 14:26:26;;;;;;;10.73;7.95;;;30.80;1.00;;;;;;5007070;28;20399;-88
2023/10/02 14:29:00;;;;;;;12.32;7.53;;;30.50;1.00;;;;;;5006656;28;20488;-87
2023/10/02 14:31:53;;;;;;;10.32;6.93;;;31.40;1.00;;;;;;5005690;28;20462;-86
2023/10/02 14:34:21;;;;;;;8.80;6.50;;;27.50;1.00;;;;;;5000901;28;20771;-88
2023/10/02 14:36:50;;;;;;;8.65;6.80;;;30.80;1.00;;;;;;5005495;28;20452;-88
2023/10/02 14:39:18;;;;;;;8.60;7.07;;;28.70;1.00;;;;;;5004369;28;20457;-87
2023/10/02 14:42:21;;;;;;;8.73;7.30;;;30.60;1.00;;;;;;5003547;28;20414;-86
2023/10/02 14:48:16;;;;;;;9.75;7.65;;;29.20;1.00;;;;;;4976571;28;20813;-86
2023/10/02 14:50:43;;;;;;;10.43;7.53;;;29.90;1.00;;;;;;4959192;28;20856;-88
2023/10/02 14:56:55;;;;;;;10.75;8.00;;;30.20;1.00;;;;;;4975493;28;20442;-87
2023/10/02 14:59:35;;;;;;;8.20;7.03;;;34.00;1.00;;;;;;4980401;28;20438;-87
2023/10/02 15:02:04;;;;;;;12.07;7.07;;;31.20;1.00;;;;;;4993758;28;20411;-86
2023/10/02 15:04:53;;;;;;;10.95;7.35;;;30.00;1.00;;;;;;4996814;28;20481;-87
2023/10/02 15:07:53;;;;;;;9.82;7.40;;;29.30;1.00;;;;;;4957319;28;20400;-87
2023/10/02 15:10:35;;;;;;;13.02;8.63;;;29.60;1.00;;;;;;4960230;28;20397;-87
2023/10/02 15:13:07;;;;;;;10.13;7.90;;;30.90;1.00;;;;;;4994365;28;20461;-87
2023/10/02 15:15:48;;;;;;;10.67;7.90;;;32.20;1.00;;;;;;5001173;28;20418;-87
2023/10/02 15:18:33;;;;;;;11.73;7.93;;;29.10;1.00;;;;;;5000359;28;20395;-87
2023/10/02 15:21:29;;;;;;;11.23;8.10;;;30.70;1.00;;;;;;5000071;28;20573;-87
2023/10/02 15:24:01;;;;;;;12.90;8.03;;;30.90;1.00;;;;;;4998936;28;20457;-87
2023/10/02 15:27:04;;;;;;;10.90;7.70;;;28.30;1.00;;;;;;4999443;28;20418;-87
2023/10/02 15:30:00;;;;;;;12.30;7.97;;;30.70;1.00;;;;;;4999013;28;20395;-86
2023/10/02 15:32:26;;;;;;;11.60;8.15;;;30.80;1.00;;;;;;5000274;28;20414;-87
2023/10/02 15:35:27;;;;;;;11.77;8.88;;;28.00;1.00;;;;;;5000587;28;20398;-87
2023/10/02 15:38:01;;;;;;;14.30;8.30;;;31.10;1.00;;;;;;4997349;28;20394;-88
2023/10/02 15:40:36;;;;;;;13.85;8.77;;;28.90;1.00;;;;;;4996563;28;20399;-88
2023/10/02 15:43:03;;;;;;;13.05;8.32;;;28.00;1.00;;;;;;4993892;28;20536;-88
2023/10/02 15:45:41;;;;;;;12.43;8.50;;;27.70;1.00;;;;;;4995152;28;20411;-88
2023/10/02 15:48:19;;;;;;;12.65;9.00;;;28.20;1.00;;;;;;5009230;28;20393;-89
2023/10/02 15:50:49;;;;;;;14.20;9.90;;;27.00;1.00;;;;;;5005233;28;20495;-89
2023/10/02 15:53:20;;;;;;;13.60;9.68;;;27.60;1.00;;;;;;4996127;28;20493;-87
2023/10/02 15:55:56;;;;;;;13.18;9.27;;;26.10;1.00;;;;;;4984863;28;20395;-88
2023/10/02 15:58:22;;;;;;;13.48;9.55;;;25.70;1.00;;;;;;4997104;28;20904;-89
2023/10/02 16:00:54;;;;;;;14.40;9.80;;;25.30;1.00;;;;;;5001032;28;20426;-89
2023/10/02 16:03:20;;;;;;;13.18;9.65;;;25.20;1.00;;;;;;5008711;28;20402;-89
2023/10/02 16:05:49;;;;;;;15.43;9.90;;;24.60;1.00;;;;;;5015633;28;20461;-87
2023/10/02 16:08:15;;;;;;;12.85;9.27;;;24.50;1.00;;;;;;5015628;28;20402;-91
2023/10/02 16:10:49;;;;;;;13.90;9.40;;;24.00;1.00;;;;;;5015665;28;20418;-91
2023/10/02 16:13:21;;;;;;;11.75;8.90;;;24.50;1.00;;;;;;5018391;28;20401;-89
2023/10/02 16:15:46;;;;;;;12.57;8.77;;;23.70;1.00;;;;;;5019191;28;20414;-90
2023/10/02 16:18:12;;;;;;;13.93;9.50;;;23.70;1.00;;;;;;5018043;28;20425;-89
2023/10/02 16:20:39;;;;;;;14.80;9.00;;;24.30;1.00;;;;;;5016927;28;20390;-90
2023/10/02 16:23:17;;;;;;;12.10;9.82;;;23.50;1.00;;;;;;5014074;28;20936;-89
2023/10/02 16:25:46;;;;;;;35.50;9.57;;;23.30;1.00;;;;;;4991435;28;20775;-89
2023/10/02 16:28:17;;;;;;;13.98;9.38;;;23.20;1.00;;;;;;5000208;28;20407;-89
2023/10/02 16:30:50;;;;;;;11.55;8.57;;;23.00;1.00;;;;;;4998957;28;20418;-89
2023/10/02 16:33:29;;;;;;;12.10;8.60;;;22.20;1.00;;;;;;5009184;28;20387;-90
2023/10/02 16:36:00;;;;;;;11.97;8.00;;;22.80;1.00;;;;;;5003583;28;20521;-87
2023/10/02 16:38:33;;;;;;;14.27;8.50;;;23.50;1.00;;;;;;4998939;28;20913;-87